createdAt,value
2019-02-21T00:00:09.228Z,929.77
2019-02-21T00:01:09.183Z,929.78
2019-02-21T00:02:09.155Z,929.79
2019-02-21T00:03:09.108Z,929.80
2019-02-21T00:04:09.104Z,929.77
2019-02-21T00:05:09.020Z,929.80
2019-02-21T00:06:08.971Z,929.83
2019-02-21T00:07:08.914Z,929.88
2019-02-21T00:08:08.868Z,929.95
2019-02-21T00:09:08.822Z,929.95
2019-02-21T00:10:08.788Z,930.03
2019-02-21T00:11:08.733Z,930.05
2019-02-21T00:12:08.684Z,930.06
2019-02-21T00:13:08.650Z,930.16
2019-02-21T00:14:08.584Z,930.14
2019-02-21T00:15:08.562Z,930.16
2019-02-21T00:16:08.482Z,930.22
2019-02-21T00:17:08.447Z,930.21
2019-02-21T00:18:08.421Z,930.24
2019-02-21T00:19:08.363Z,930.27
2019-02-21T00:20:08.309Z,930.26
2019-02-21T00:21:08.266Z,930.27
2019-02-21T00:22:08.219Z,930.28
2019-02-21T00:23:08.165Z,930.27
2019-02-21T00:24:08.135Z,930.24
2019-02-21T00:25:08.082Z,930.21
2019-02-21T00:26:08.045Z,930.19
2019-02-21T00:27:07.999Z,930.15
2019-02-21T00:28:07.943Z,930.08
2019-02-21T00:29:07.906Z,930.12
2019-02-21T00:30:07.852Z,930.17
2019-02-21T00:31:07.815Z,930.19
2019-02-21T00:32:07.760Z,930.19
2019-02-21T00:33:07.703Z,930.21
2019-02-21T00:34:07.659Z,930.22
2019-02-21T00:35:07.629Z,930.26
2019-02-21T00:36:07.579Z,930.23
2019-02-21T00:37:07.532Z,930.27
2019-02-21T00:38:07.486Z,930.23
2019-02-21T00:39:07.449Z,930.14
2019-02-21T00:40:07.395Z,930.17
2019-02-21T00:41:07.358Z,930.13
2019-02-21T00:42:07.292Z,930.08
2019-02-21T00:43:07.268Z,930.04
2019-02-21T00:44:07.200Z,930.02
2019-02-21T00:45:07.177Z,930.02
2019-02-21T00:46:07.120Z,929.99
2019-02-21T00:47:07.084Z,930.01
2019-02-21T00:48:07.017Z,929.99
2019-02-21T00:49:06.983Z,929.98
2019-02-21T00:50:06.937Z,929.97
2019-02-21T00:51:06.892Z,929.97
2019-02-21T00:52:06.868Z,929.98
2019-02-21T00:53:06.809Z,929.93
2019-02-21T00:54:06.778Z,929.99
2019-02-21T00:55:06.708Z,929.96
2019-02-21T00:56:06.654Z,929.95
2019-02-21T00:57:06.628Z,929.95
2019-02-21T00:58:12.862Z,929.98
2019-02-21T00:59:06.536Z,929.98
2019-02-21T01:00:06.468Z,930.00
2019-02-21T01:01:06.445Z,930.02
2019-02-21T01:02:06.411Z,929.96
2019-02-21T01:03:06.354Z,929.99
2019-02-21T01:04:06.311Z,929.95
2019-02-21T01:05:06.275Z,929.88
2019-02-21T01:06:06.193Z,929.87
2019-02-21T01:07:06.149Z,929.84
2019-02-21T01:08:06.137Z,929.89
2019-02-21T01:09:06.079Z,929.79
2019-02-21T01:10:06.045Z,929.81
2019-02-21T01:11:05.996Z,929.79
2019-02-21T01:12:05.952Z,929.81
2019-02-21T01:13:05.873Z,929.80
2019-02-21T01:14:05.839Z,929.82
2019-02-21T01:15:05.793Z,929.87
2019-02-21T01:16:05.748Z,929.88
2019-02-21T01:17:05.690Z,929.84
2019-02-21T01:18:05.653Z,929.84
2019-02-21T01:19:05.642Z,929.84
2019-02-21T01:20:05.588Z,929.84
2019-02-21T01:21:05.520Z,929.82
2019-02-21T01:22:05.473Z,929.82
2019-02-21T01:23:05.448Z,929.81
2019-02-21T01:24:05.396Z,929.80
2019-02-21T01:25:05.346Z,929.81
2019-02-21T01:26:05.314Z,929.84
2019-02-21T01:27:05.233Z,929.81
2019-02-21T01:28:05.199Z,929.81
2019-02-21T01:29:05.169Z,929.76
2019-02-21T01:30:05.096Z,929.78
2019-02-21T01:31:05.071Z,929.76
2019-02-21T01:32:05.017Z,929.73
2019-02-21T01:33:04.981Z,929.77
2019-02-21T01:34:04.941Z,929.77
2019-02-21T01:35:04.889Z,929.73
2019-02-21T01:36:04.843Z,929.78
2019-02-21T01:37:04.788Z,929.76
2019-02-21T01:38:04.731Z,929.76
2019-02-21T01:39:04.717Z,929.78
2019-02-21T01:40:04.660Z,929.77
2019-02-21T01:41:04.594Z,929.86
2019-02-21T01:42:04.585Z,929.79
2019-02-21T01:43:04.503Z,929.86
2019-02-21T01:44:04.745Z,929.98
2019-02-21T01:45:04.411Z,929.96
2019-02-21T01:46:04.398Z,929.96
2019-02-21T01:47:04.340Z,929.91
2019-02-21T01:48:04.275Z,929.88
2019-02-21T01:49:04.240Z,929.82
2019-02-21T01:50:04.183Z,929.73
2019-02-21T01:51:04.158Z,929.65
2019-02-21T01:52:04.091Z,929.61
2019-02-21T01:53:04.065Z,929.56
2019-02-21T01:54:04.033Z,929.60
2019-02-21T01:55:04.003Z,929.58
2019-02-21T01:56:03.941Z,929.59
2019-02-21T01:57:03.889Z,929.60
2019-02-21T01:58:03.852Z,929.60
2019-02-21T01:59:03.783Z,929.56
2019-02-21T02:00:03.763Z,929.62
2019-02-21T02:01:08.620Z,929.64
2019-02-21T02:02:03.647Z,929.67
2019-02-21T02:03:03.600Z,929.66
2019-02-21T02:04:03.554Z,929.66
2019-02-21T02:05:03.529Z,929.65
2019-02-21T02:06:03.463Z,929.61
2019-02-21T02:07:03.426Z,929.63
2019-02-21T02:08:03.381Z,929.60
2019-02-21T02:09:03.347Z,929.61
2019-02-21T02:10:03.290Z,929.64
2019-02-21T02:11:03.237Z,929.62
2019-02-21T02:12:03.177Z,929.62
2019-02-21T02:13:03.136Z,929.61
2019-02-21T02:14:03.118Z,929.54
2019-02-21T02:15:03.053Z,929.58
2019-02-21T02:16:03.009Z,929.54
2019-02-21T02:17:02.984Z,929.54
2019-02-21T02:18:02.936Z,929.51
2019-02-21T02:19:02.869Z,929.49
2019-02-21T02:20:02.818Z,929.47
2019-02-21T02:21:02.779Z,929.46
2019-02-21T02:22:02.742Z,929.50
2019-02-21T02:23:02.696Z,929.49
2019-02-21T02:24:02.629Z,929.51
2019-02-21T02:25:02.616Z,929.56
2019-02-21T02:26:02.559Z,929.52
2019-02-21T02:27:02.505Z,929.52
2019-02-21T02:28:02.467Z,929.48
2019-02-21T02:29:02.413Z,929.47
2019-02-21T02:30:02.369Z,929.49
2019-02-21T02:31:02.324Z,929.44
2019-02-21T02:32:02.285Z,929.41
2019-02-21T02:33:02.220Z,929.42
2019-02-21T02:34:02.188Z,929.41
2019-02-21T02:35:02.130Z,929.37
2019-02-21T02:36:02.103Z,929.36
2019-02-21T02:37:02.070Z,929.33
2019-02-21T02:38:02.002Z,929.31
2019-02-21T02:39:01.977Z,929.28
2019-02-21T02:40:01.922Z,929.25
2019-02-21T02:41:01.854Z,929.27
2019-02-21T02:42:01.820Z,929.32
2019-02-21T02:43:01.763Z,929.33
2019-02-21T02:44:01.749Z,929.34
2019-02-21T02:45:01.681Z,929.40
2019-02-21T02:46:01.649Z,929.44
2019-02-21T02:47:01.643Z,929.53
2019-02-21T02:48:01.548Z,929.62
2019-02-21T02:49:01.495Z,929.64
2019-02-21T02:50:01.457Z,929.69
2019-02-21T02:51:01.417Z,929.69
2019-02-21T02:52:01.366Z,929.74
2019-02-21T02:53:01.309Z,929.72
2019-02-21T02:54:01.295Z,929.70
2019-02-21T02:55:01.228Z,929.67
2019-02-21T02:56:01.192Z,929.70
2019-02-21T02:57:01.129Z,929.66
2019-02-21T02:58:01.096Z,929.61
2019-02-21T02:59:01.034Z,929.59
2019-02-21T03:00:00.999Z,929.60
2019-02-21T03:01:00.963Z,929.63
2019-02-21T03:02:00.929Z,929.63
2019-02-21T03:03:00.873Z,929.68
2019-02-21T03:04:00.838Z,929.72
2019-02-21T03:05:00.781Z,929.74
2019-02-21T03:06:00.735Z,929.74
2019-02-21T03:07:00.690Z,929.78
2019-02-21T03:08:00.632Z,929.78
2019-02-21T03:09:00.598Z,929.79
2019-02-21T03:10:00.599Z,929.76
2019-02-21T03:11:00.499Z,929.80
2019-02-21T03:12:00.441Z,929.77
2019-02-21T03:13:00.428Z,929.79
2019-02-21T03:14:00.383Z,929.83
2019-02-21T03:15:00.416Z,929.86
2019-02-21T03:16:00.295Z,929.85
2019-02-21T03:17:00.233Z,929.82
2019-02-21T03:18:00.170Z,929.83
2019-02-21T03:19:00.122Z,929.82
2019-02-21T03:20:00.294Z,929.79
2019-02-21T03:21:00.062Z,929.80
2019-02-21T03:21:59.996Z,929.78
2019-02-21T03:22:59.978Z,929.71
2019-02-21T03:23:59.917Z,929.71
2019-02-21T03:24:59.869Z,929.68
2019-02-21T03:25:59.813Z,929.67
2019-02-21T03:26:59.756Z,929.65
2019-02-21T03:27:59.711Z,929.65
2019-02-21T03:28:59.697Z,929.66
2019-02-21T03:29:59.651Z,929.65
2019-02-21T03:30:59.594Z,929.62
2019-02-21T03:31:59.540Z,929.63
2019-02-21T03:32:59.486Z,929.60
2019-02-21T03:33:59.450Z,929.63
2019-02-21T03:34:59.404Z,929.59
2019-02-21T03:35:59.371Z,929.55
2019-02-21T03:36:59.444Z,929.57
2019-02-21T03:37:59.257Z,929.50
2019-02-21T03:38:59.470Z,929.51
2019-02-21T03:39:59.198Z,929.50
2019-02-21T03:40:59.137Z,929.50
2019-02-21T03:41:59.103Z,929.46
2019-02-21T03:42:59.039Z,929.43
2019-02-21T03:43:59.000Z,929.45
2019-02-21T03:44:58.945Z,929.43
2019-02-21T03:45:58.910Z,929.45
2019-02-21T03:46:58.854Z,929.44
2019-02-21T03:47:58.831Z,929.45
2019-02-21T03:48:58.712Z,929.44
2019-02-21T03:49:58.738Z,929.46
2019-02-21T03:50:58.680Z,929.48
2019-02-21T03:51:58.647Z,929.51
2019-02-21T03:52:58.580Z,929.51
2019-02-21T03:53:58.536Z,929.52
2019-02-21T03:54:58.492Z,929.50
2019-02-21T03:55:58.444Z,929.47
2019-02-21T03:56:58.408Z,929.49
2019-02-21T03:57:58.353Z,929.48
2019-02-21T03:58:58.307Z,929.48
2019-02-21T03:59:58.260Z,929.51
2019-02-21T04:00:58.224Z,929.47
2019-02-21T04:02:05.426Z,929.52
2019-02-21T04:02:58.126Z,929.45
2019-02-21T04:03:58.073Z,929.44
2019-02-21T04:04:58.102Z,929.41
2019-02-21T04:05:57.987Z,929.39
2019-02-21T04:06:57.941Z,929.42
2019-02-21T04:07:57.895Z,929.35
2019-02-21T04:08:57.864Z,929.42
2019-02-21T04:09:57.805Z,929.39
2019-02-21T04:10:57.767Z,929.40
2019-02-21T04:11:57.733Z,929.38
2019-02-21T04:12:57.676Z,929.40
2019-02-21T04:13:57.621Z,929.34
2019-02-21T04:14:57.565Z,929.32
2019-02-21T04:15:57.539Z,929.30
2019-02-21T04:16:57.484Z,929.29
2019-02-21T04:17:57.427Z,929.26
2019-02-21T04:18:57.396Z,929.27
2019-02-21T04:19:57.349Z,929.29
2019-02-21T04:20:57.329Z,929.24
2019-02-21T04:21:57.255Z,929.24
2019-02-21T04:22:57.241Z,929.23
2019-02-21T04:23:57.177Z,929.22
2019-02-21T04:24:57.109Z,929.22
2019-02-21T04:25:57.061Z,929.23
2019-02-21T04:26:57.048Z,929.28
2019-02-21T04:27:56.983Z,929.25
2019-02-21T04:28:56.956Z,929.28
2019-02-21T04:29:56.925Z,929.31
2019-02-21T04:30:56.847Z,929.32
2019-02-21T04:31:56.799Z,929.33
2019-02-21T04:32:56.753Z,929.31
2019-02-21T04:33:56.728Z,929.29
2019-02-21T04:34:56.651Z,929.26
2019-02-21T04:36:00.526Z,929.24
2019-02-21T04:36:56.570Z,929.27
2019-02-21T04:37:56.540Z,929.29
2019-02-21T04:38:56.499Z,929.30
2019-02-21T04:39:56.455Z,929.26
2019-02-21T04:40:56.416Z,929.25
2019-02-21T04:41:56.351Z,929.25
2019-02-21T04:42:56.284Z,929.23
2019-02-21T04:43:56.253Z,929.22
2019-02-21T04:44:56.211Z,929.24
2019-02-21T04:45:56.179Z,929.24
2019-02-21T04:46:56.135Z,929.25
2019-02-21T04:47:56.069Z,929.25
2019-02-21T04:48:56.031Z,929.20
2019-02-21T04:49:55.964Z,929.20
2019-02-21T04:50:55.939Z,929.20
2019-02-21T04:51:55.872Z,929.16
2019-02-21T04:52:55.848Z,929.18
2019-02-21T04:53:55.811Z,929.18
2019-02-21T04:54:55.781Z,929.13
2019-02-21T04:55:55.691Z,929.13
2019-02-21T04:56:55.654Z,929.18
2019-02-21T04:57:55.631Z,929.14
2019-02-21T04:58:55.571Z,929.09
2019-02-21T04:59:55.516Z,929.10
2019-02-21T05:00:55.470Z,929.03
2019-02-21T05:01:55.424Z,929.04
2019-02-21T05:02:55.367Z,928.95
2019-02-21T05:03:55.321Z,928.95
2019-02-21T05:04:55.307Z,928.99
2019-02-21T05:05:55.243Z,928.94
2019-02-21T05:06:55.197Z,928.91
2019-02-21T05:07:55.157Z,928.83
2019-02-21T05:08:55.128Z,928.69
2019-02-21T05:09:58.346Z,928.65
2019-02-21T05:10:55.019Z,928.62
2019-02-21T05:11:54.973Z,928.59
2019-02-21T05:12:54.907Z,928.62
2019-02-21T05:13:54.883Z,928.64
2019-02-21T05:14:54.815Z,928.56
2019-02-21T05:15:54.868Z,928.60
2019-02-21T05:16:54.955Z,928.63
2019-02-21T05:17:54.714Z,928.62
2019-02-21T05:18:54.632Z,928.63
2019-02-21T05:19:54.621Z,928.63
2019-02-21T05:20:54.550Z,928.57
2019-02-21T05:21:54.504Z,928.55
2019-02-21T05:22:54.472Z,928.48
2019-02-21T05:23:54.403Z,928.41
2019-02-21T05:24:54.378Z,928.48
2019-02-21T05:25:54.321Z,928.51
2019-02-21T05:26:54.299Z,928.56
2019-02-21T05:27:54.252Z,928.54
2019-02-21T05:28:54.180Z,928.48
2019-02-21T05:29:54.162Z,928.43
2019-02-21T05:30:54.112Z,928.40
2019-02-21T05:31:54.033Z,928.38
2019-02-21T05:32:53.988Z,928.38
2019-02-21T05:33:53.952Z,928.37
2019-02-21T05:34:53.921Z,928.39
2019-02-21T05:35:53.877Z,928.41
2019-02-21T05:36:53.805Z,928.40
2019-02-21T05:37:53.778Z,928.45
2019-02-21T05:38:53.743Z,928.41
2019-02-21T05:39:53.665Z,928.47
2019-02-21T05:40:53.644Z,928.43
2019-02-21T05:41:53.593Z,928.41
2019-02-21T05:42:53.557Z,928.37
2019-02-21T05:43:53.511Z,928.36
2019-02-21T05:44:53.470Z,928.36
2019-02-21T05:45:53.388Z,928.35
2019-02-21T05:46:53.427Z,928.36
2019-02-21T05:47:53.335Z,928.36
2019-02-21T05:48:53.281Z,928.36
2019-02-21T05:49:53.227Z,928.38
2019-02-21T05:50:53.190Z,928.37
2019-02-21T05:51:53.127Z,928.37
2019-02-21T05:52:53.087Z,928.33
2019-02-21T05:53:53.054Z,928.35
2019-02-21T05:54:52.986Z,928.33
2019-02-21T05:55:52.952Z,928.31
2019-02-21T05:56:52.914Z,928.31
2019-02-21T05:57:52.850Z,928.32
2019-02-21T05:58:52.824Z,928.31
2019-02-21T05:59:52.757Z,928.30
2019-02-21T06:00:52.698Z,928.31
2019-02-21T06:01:52.665Z,928.31
2019-02-21T06:02:53.705Z,928.31
2019-02-21T06:03:52.588Z,928.33
2019-02-21T06:04:52.547Z,928.34
2019-02-21T06:05:52.480Z,928.30
2019-02-21T06:06:52.443Z,928.31
2019-02-21T06:07:52.396Z,928.32
2019-02-21T06:08:52.362Z,928.28
2019-02-21T06:09:52.285Z,928.28
2019-02-21T06:10:52.250Z,928.29
2019-02-21T06:11:52.227Z,928.27
2019-02-21T06:12:52.179Z,928.27
2019-02-21T06:13:52.101Z,928.27
2019-02-21T06:14:52.058Z,928.27
2019-02-21T06:15:52.029Z,928.27
2019-02-21T06:16:51.975Z,928.26
2019-02-21T06:17:51.928Z,928.27
2019-02-21T06:18:51.884Z,928.27
2019-02-21T06:19:51.840Z,928.27
2019-02-21T06:20:51.810Z,928.29
2019-02-21T06:21:51.757Z,928.28
2019-02-21T06:22:51.686Z,928.28
2019-02-21T06:23:51.662Z,928.30
2019-02-21T06:24:51.600Z,928.32
2019-02-21T06:25:56.738Z,928.31
2019-02-21T06:26:51.503Z,928.33
2019-02-21T06:27:51.489Z,928.28
2019-02-21T06:28:53.438Z,928.30
2019-02-21T06:29:51.386Z,928.28
2019-02-21T06:30:51.355Z,928.24
2019-02-21T06:31:51.284Z,928.25
2019-02-21T06:32:51.227Z,928.20
2019-02-21T06:33:51.184Z,928.24
2019-02-21T06:34:52.465Z,928.21
2019-02-21T06:35:51.123Z,928.19
2019-02-21T06:36:51.055Z,928.17
2019-02-21T06:37:51.010Z,928.18
2019-02-21T06:38:50.951Z,928.20
2019-02-21T06:39:50.938Z,928.25
2019-02-21T06:40:50.862Z,928.22
2019-02-21T06:41:59.195Z,928.28
2019-02-21T06:42:50.812Z,928.23
2019-02-21T06:43:52.722Z,928.28
2019-02-21T06:44:50.696Z,928.28
2019-02-21T06:45:50.674Z,928.28
2019-02-21T06:46:50.597Z,928.27
2019-02-21T06:47:50.548Z,928.28
2019-02-21T06:48:51.641Z,928.32
2019-02-21T06:49:50.478Z,928.32
2019-02-21T06:50:50.421Z,928.30
2019-02-21T06:51:50.450Z,928.28
2019-02-21T06:52:50.319Z,928.30
2019-02-21T06:53:50.636Z,928.32
2019-02-21T06:54:50.228Z,928.37
2019-02-21T06:55:50.182Z,928.38
2019-02-21T06:56:50.197Z,928.35
2019-02-21T06:57:50.092Z,928.36
2019-02-21T06:58:50.045Z,928.38
2019-02-21T06:59:49.987Z,928.39
2019-02-21T07:00:49.973Z,928.41
2019-02-21T07:01:49.916Z,928.38
2019-02-21T07:02:49.869Z,928.39
2019-02-21T07:03:49.835Z,928.35
2019-02-21T07:04:49.757Z,928.31
2019-02-21T07:05:49.732Z,928.27
2019-02-21T07:06:49.687Z,928.32
2019-02-21T07:07:49.926Z,928.36
2019-02-21T07:08:49.573Z,928.34
2019-02-21T07:09:49.528Z,928.33
2019-02-21T07:10:49.508Z,928.30
2019-02-21T07:11:49.448Z,928.31
2019-02-21T07:12:49.390Z,928.32
2019-02-21T07:13:49.376Z,928.30
2019-02-21T07:14:49.336Z,928.27
2019-02-21T07:15:49.273Z,928.28
2019-02-21T07:16:49.210Z,928.26
2019-02-21T07:17:49.810Z,928.28
2019-02-21T07:18:49.127Z,928.27
2019-02-21T07:19:49.069Z,928.28
2019-02-21T07:20:49.054Z,928.34
2019-02-21T07:21:48.999Z,928.30
2019-02-21T07:22:48.946Z,928.30
2019-02-21T07:23:48.906Z,928.35
2019-02-21T07:24:48.852Z,928.37
2019-02-21T07:25:50.604Z,928.37
2019-02-21T07:26:48.748Z,928.40
2019-02-21T07:27:48.713Z,928.41
2019-02-21T07:28:48.676Z,928.43
2019-02-21T07:29:48.644Z,928.42
2019-02-21T07:30:48.579Z,928.47
2019-02-21T07:31:49.440Z,928.49
2019-02-21T07:32:48.493Z,928.45
2019-02-21T07:33:48.529Z,928.48
2019-02-21T07:34:48.413Z,928.49
2019-02-21T07:35:48.351Z,928.50
2019-02-21T07:36:50.146Z,928.52
2019-02-21T07:37:48.279Z,928.53
2019-02-21T07:38:48.245Z,928.54
2019-02-21T07:39:50.772Z,928.50
2019-02-21T07:40:48.126Z,928.53
2019-02-21T07:41:49.946Z,928.54
2019-02-21T07:42:48.378Z,928.52
2019-02-21T07:43:47.989Z,928.48
2019-02-21T07:44:47.961Z,928.51
2019-02-21T07:45:47.909Z,928.53
2019-02-21T07:46:47.844Z,928.52
2019-02-21T07:47:47.805Z,928.52
2019-02-21T07:48:47.771Z,928.53
2019-02-21T07:49:47.743Z,928.54
2019-02-21T07:50:47.682Z,928.59
2019-02-21T07:51:47.613Z,928.57
2019-02-21T07:52:47.557Z,928.55
2019-02-21T07:53:47.532Z,928.57
2019-02-21T07:54:49.543Z,928.56
2019-02-21T07:55:47.432Z,928.51
2019-02-21T07:56:47.384Z,928.51
2019-02-21T07:57:47.328Z,928.52
2019-02-21T07:58:47.314Z,928.53
2019-02-21T07:59:47.267Z,928.54
2019-02-21T08:00:47.192Z,928.56
2019-02-21T08:01:47.146Z,928.54
2019-02-21T08:02:47.120Z,928.57
2019-02-21T08:03:48.515Z,928.61
2019-02-21T08:04:47.039Z,928.64
2019-02-21T08:05:46.993Z,928.64
2019-02-21T08:06:47.055Z,928.67
2019-02-21T08:07:46.871Z,928.69
2019-02-21T08:08:46.823Z,928.68
2019-02-21T08:09:46.778Z,928.65
2019-02-21T08:10:46.737Z,928.65
2019-02-21T08:11:46.697Z,928.64
2019-02-21T08:12:46.663Z,928.66
2019-02-21T08:13:46.614Z,928.64
2019-02-21T08:14:46.580Z,928.67
2019-02-21T08:15:46.503Z,928.69
2019-02-21T08:16:46.468Z,928.69
2019-02-21T08:17:46.443Z,928.69
2019-02-21T08:18:46.365Z,928.73
2019-02-21T08:19:46.321Z,928.75
2019-02-21T08:20:46.305Z,928.76
2019-02-21T08:21:46.338Z,928.77
2019-02-21T08:22:46.213Z,928.74
2019-02-21T08:23:50.705Z,928.78
2019-02-21T08:24:46.111Z,928.85
2019-02-21T08:25:46.065Z,928.81
2019-02-21T08:26:46.011Z,928.80
2019-02-21T08:27:45.953Z,928.80
2019-02-21T08:28:45.927Z,928.85
2019-02-21T08:29:45.893Z,928.90
2019-02-21T08:30:45.847Z,928.93
2019-02-21T08:31:45.802Z,928.92
2019-02-21T08:32:45.735Z,928.92
2019-02-21T08:33:57.613Z,928.93
2019-02-21T08:34:48.138Z,928.95
2019-02-21T08:35:45.607Z,928.95
2019-02-21T08:36:45.552Z,928.93
2019-02-21T08:37:45.494Z,928.95
2019-02-21T08:38:45.451Z,928.94
2019-02-21T08:39:45.415Z,928.98
2019-02-21T08:40:45.395Z,929.00
2019-02-21T08:41:45.324Z,928.99
2019-02-21T08:42:45.298Z,929.06
2019-02-21T08:43:45.239Z,929.10
2019-02-21T08:44:45.206Z,929.06
2019-02-21T08:45:45.128Z,929.08
2019-02-21T08:46:45.083Z,929.08
2019-02-21T08:47:45.069Z,929.08
2019-02-21T08:48:47.654Z,929.11
2019-02-21T08:49:44.977Z,929.14
2019-02-21T08:50:44.941Z,929.10
2019-02-21T08:51:44.856Z,929.09
2019-02-21T08:52:44.808Z,929.11
2019-02-21T08:53:44.761Z,929.10
2019-02-21T08:54:44.718Z,929.10
2019-02-21T08:55:44.699Z,929.13
2019-02-21T08:56:44.656Z,929.15
2019-02-21T08:57:44.593Z,929.13
2019-02-21T08:58:44.564Z,929.16
2019-02-21T08:59:44.518Z,929.18
2019-02-21T09:00:44.461Z,929.24
2019-02-21T09:01:44.407Z,929.31
2019-02-21T09:02:44.374Z,929.32
2019-02-21T09:03:44.335Z,929.32
2019-02-21T09:04:44.272Z,929.36
2019-02-21T09:05:44.232Z,929.35
2019-02-21T09:06:44.199Z,929.40
2019-02-21T09:07:46.333Z,929.37
2019-02-21T09:08:44.091Z,929.40
2019-02-21T09:09:44.061Z,929.39
2019-02-21T09:10:44.022Z,929.38
2019-02-21T09:11:43.958Z,929.37
2019-02-21T09:12:48.046Z,929.35
2019-02-21T09:13:43.858Z,929.38
2019-02-21T09:14:43.811Z,929.37
2019-02-21T09:15:46.356Z,929.34
2019-02-21T09:16:43.729Z,929.36
2019-02-21T09:17:43.745Z,929.42
2019-02-21T09:18:43.690Z,929.41
2019-02-21T09:19:43.572Z,929.48
2019-02-21T09:20:43.558Z,929.46
2019-02-21T09:21:43.512Z,929.47
2019-02-21T09:22:43.440Z,929.49
2019-02-21T09:23:43.501Z,929.49
2019-02-21T09:24:43.357Z,929.52
2019-02-21T09:25:43.308Z,929.55
2019-02-21T09:26:43.272Z,929.57
2019-02-21T09:27:43.218Z,929.62
2019-02-21T09:28:43.183Z,929.67
2019-02-21T09:29:43.134Z,929.66
2019-02-21T09:30:43.088Z,929.63
2019-02-21T09:31:43.062Z,929.65
2019-02-21T09:32:43.008Z,929.68
2019-02-21T09:33:43.857Z,929.65
2019-02-21T09:34:42.917Z,929.64
2019-02-21T09:35:42.871Z,929.67
2019-02-21T09:36:42.807Z,929.72
2019-02-21T09:37:42.782Z,929.74
2019-02-21T09:38:42.704Z,929.75
2019-02-21T09:39:42.668Z,929.76
2019-02-21T09:40:42.840Z,929.76
2019-02-21T09:41:42.587Z,929.75
2019-02-21T09:42:42.551Z,929.72
2019-02-21T09:43:42.507Z,929.75
2019-02-21T09:44:42.428Z,929.72
2019-02-21T09:45:42.411Z,929.71
2019-02-21T09:46:42.340Z,929.78
2019-02-21T09:47:42.291Z,929.82
2019-02-21T09:48:42.256Z,929.83
2019-02-21T09:49:42.199Z,929.85
2019-02-21T09:50:42.157Z,929.87
2019-02-21T09:51:42.141Z,929.88
2019-02-21T09:52:42.085Z,929.88
2019-02-21T09:53:42.017Z,929.93
2019-02-21T09:54:41.991Z,929.92
2019-02-21T09:55:41.949Z,929.96
2019-02-21T09:56:52.066Z,929.98
2019-02-21T09:57:41.863Z,930.01
2019-02-21T09:58:41.820Z,930.01
2019-02-21T09:59:41.754Z,930.04
2019-02-21T10:00:41.729Z,930.02
2019-02-21T10:01:41.677Z,930.04
2019-02-21T10:02:42.189Z,930.03
2019-02-21T10:03:44.009Z,929.98
2019-02-21T10:04:41.514Z,929.94
2019-02-21T10:05:41.501Z,929.97
2019-02-21T10:06:41.457Z,929.98
2019-02-21T10:07:41.410Z,929.99
2019-02-21T10:08:41.343Z,930.04
2019-02-21T10:09:41.288Z,930.06
2019-02-21T10:10:41.259Z,930.06
2019-02-21T10:11:41.229Z,930.07
2019-02-21T10:12:41.182Z,930.06
2019-02-21T10:13:41.106Z,930.08
2019-02-21T10:14:41.082Z,930.10
2019-02-21T10:15:41.044Z,930.13
2019-02-21T10:16:40.990Z,930.12
2019-02-21T10:17:40.943Z,930.16
2019-02-21T10:18:40.888Z,930.19
2019-02-21T10:19:40.853Z,930.23
2019-02-21T10:20:40.845Z,930.27
2019-02-21T10:21:40.777Z,930.21
2019-02-21T10:22:40.716Z,930.26
2019-02-21T10:23:42.170Z,930.31
2019-02-21T10:24:40.606Z,930.30
2019-02-21T10:25:40.559Z,930.41
2019-02-21T10:26:40.534Z,930.43
2019-02-21T10:27:40.481Z,930.41
2019-02-21T10:28:40.457Z,930.41
2019-02-21T10:29:40.434Z,930.37
2019-02-21T10:30:40.345Z,930.41
2019-02-21T10:31:40.310Z,930.45
2019-02-21T10:32:40.243Z,930.46
2019-02-21T10:33:47.084Z,930.49
2019-02-21T10:34:43.041Z,930.61
2019-02-21T10:35:40.112Z,930.53
2019-02-21T10:36:40.074Z,930.60
2019-02-21T10:37:40.018Z,930.63
2019-02-21T10:38:40.009Z,930.69
2019-02-21T10:39:39.930Z,930.65
2019-02-21T10:40:39.916Z,930.71
2019-02-21T10:41:39.839Z,930.77
2019-02-21T10:42:39.808Z,930.75
2019-02-21T10:43:39.762Z,930.75
2019-02-21T10:44:39.706Z,930.73
2019-02-21T10:45:47.430Z,930.76
2019-02-21T10:46:39.651Z,930.88
2019-02-21T10:47:39.592Z,931.24
2019-02-21T10:48:39.528Z,930.97
2019-02-21T10:49:39.494Z,930.94
2019-02-21T10:50:39.471Z,930.91
2019-02-21T10:51:39.429Z,930.90
2019-02-21T10:52:41.554Z,930.77
2019-02-21T10:53:39.306Z,930.76
2019-02-21T10:54:39.269Z,930.71
2019-02-21T10:55:39.229Z,930.69
2019-02-21T10:56:39.176Z,930.69
2019-02-21T10:57:39.151Z,930.67
2019-02-21T10:58:39.117Z,930.73
2019-02-21T10:59:46.714Z,930.74
2019-02-21T11:00:39.035Z,930.77
2019-02-21T11:01:38.985Z,930.78
2019-02-21T11:02:38.916Z,930.83
2019-02-21T11:03:38.878Z,930.94
2019-02-21T11:04:38.830Z,930.97
2019-02-21T11:05:38.797Z,931.00
2019-02-21T11:06:38.753Z,930.99
2019-02-21T11:07:38.720Z,931.01
2019-02-21T11:08:38.644Z,931.07
2019-02-21T11:09:38.602Z,931.09
2019-02-21T11:10:38.589Z,931.00
2019-02-21T11:11:38.524Z,931.01
2019-02-21T11:12:38.494Z,931.02
2019-02-21T11:13:38.444Z,931.02
2019-02-21T11:14:47.247Z,930.98
2019-02-21T11:15:38.361Z,930.96
2019-02-21T11:16:38.319Z,930.93
2019-02-21T11:17:38.290Z,930.98
2019-02-21T11:18:38.220Z,931.00
2019-02-21T11:19:38.187Z,931.00
2019-02-21T11:20:38.152Z,931.00
2019-02-21T11:21:38.089Z,931.01
2019-02-21T11:22:38.052Z,930.96
2019-02-21T11:23:37.993Z,931.01
2019-02-21T11:24:37.979Z,930.98
2019-02-21T11:25:37.915Z,931.01
2019-02-21T11:26:37.896Z,931.00
2019-02-21T11:27:37.829Z,930.92
2019-02-21T11:28:37.787Z,930.91
2019-02-21T11:29:37.732Z,930.94
2019-02-21T11:30:37.687Z,930.94
2019-02-21T11:31:37.681Z,930.96
2019-02-21T11:32:37.602Z,930.93
2019-02-21T11:33:37.595Z,930.93
2019-02-21T11:34:38.223Z,930.87
2019-02-21T11:35:37.472Z,930.87
2019-02-21T11:36:37.461Z,930.90
2019-02-21T11:37:43.212Z,930.89
2019-02-21T11:38:37.354Z,930.92
2019-02-21T11:39:37.423Z,930.89
2019-02-21T11:40:37.278Z,930.87
2019-02-21T11:41:37.234Z,930.86
2019-02-21T11:42:37.195Z,930.88
2019-02-21T11:43:37.147Z,930.90
2019-02-21T11:44:37.104Z,930.88
2019-02-21T11:45:37.042Z,930.91
2019-02-21T11:46:37.010Z,930.86
2019-02-21T11:47:36.955Z,930.85
2019-02-21T11:48:36.926Z,930.88
2019-02-21T11:49:36.895Z,930.94
2019-02-21T11:50:36.857Z,930.98
2019-02-21T11:51:36.793Z,931.01
2019-02-21T11:52:36.753Z,931.00
2019-02-21T11:53:38.113Z,930.99
2019-02-21T11:54:36.681Z,931.00
2019-02-21T11:55:36.632Z,931.02
2019-02-21T11:56:36.578Z,931.04
2019-02-21T11:57:36.543Z,931.03
2019-02-21T11:58:36.490Z,931.07
2019-02-21T11:59:36.468Z,931.05
2019-02-21T12:00:36.404Z,931.03
2019-02-21T12:01:36.357Z,931.04
2019-02-21T12:02:38.884Z,931.03
2019-02-21T12:03:36.307Z,931.02
2019-02-21T12:04:36.252Z,931.03
2019-02-21T12:05:36.198Z,931.03
2019-02-21T12:06:36.166Z,931.06
2019-02-21T12:07:36.102Z,931.04
2019-02-21T12:08:36.049Z,931.07
2019-02-21T12:09:36.014Z,931.11
2019-02-21T12:10:35.959Z,931.11
2019-02-21T12:11:35.942Z,931.13
2019-02-21T12:12:35.905Z,931.16
2019-02-21T12:13:35.862Z,931.14
2019-02-21T12:14:35.787Z,931.16
2019-02-21T12:15:35.777Z,931.17
2019-02-21T12:16:35.713Z,931.13
2019-02-21T12:17:35.678Z,931.11
2019-02-21T12:18:35.615Z,931.15
2019-02-21T12:19:35.583Z,931.14
2019-02-21T12:20:35.549Z,931.16
2019-02-21T12:21:35.486Z,931.17
2019-02-21T12:22:35.444Z,931.21
2019-02-21T12:23:35.433Z,931.17
2019-02-21T12:24:35.368Z,931.21
2019-02-21T12:25:35.314Z,931.28
2019-02-21T12:26:35.280Z,931.24
2019-02-21T12:27:35.261Z,931.27